Time,TemperatureF,DewpointF,PressureIn,WindDirection,WindDirectionDegrees,WindSpeedMPH,WindSpeedGustMPH,Humidity,HourlyPrecipIn,Conditions,Clouds,dailyrainin,SolarRadiationWatts/m^2,SoftwareType,DateUTC
2013-03-05 00:21:00,43.0,39.0,-100.00,South,177,4.0,6.0,87,0.00,,,0.00,0.000000,,2013-03-05 08:21:00,
2013-03-05 00:31:00,43.0,39.0,-100.00,South,177,4.0,6.0,87,0.00,,,0.00,0.000000,,2013-03-05 08:31:00,
2013-03-05 00:41:00,43.0,39.0,-100.00,South,177,4.0,6.0,87,0.00,,,0.00,0.000000,,2013-03-05 08:41:00,
2013-03-05 00:50:00,43.0,41.0,-100.00,SSE,152,5.0,6.0,92,0.00,,,0.00,0.000000,,2013-03-05 08:50:00,
2013-03-05 01:11:00,43.0,41.0,-100.00,SSE,152,5.0,6.0,92,0.00,,,0.00,0.000000,,2013-03-05 09:11:00,
2013-03-05 01:21:00,43.0,41.0,-100.00,SSE,152,5.0,6.0,92,0.00,,,0.00,0.000000,,2013-03-05 09:21:00,
2013-03-05 01:31:00,43.0,41.0,-100.00,SSE,152,5.0,6.0,92,0.00,,,0.00,0.000000,,2013-03-05 09:31:00,
2013-03-05 01:42:00,43.0,41.0,-100.00,SSE,152,5.0,6.0,92,0.00,,,0.00,0.000000,,2013-03-05 09:42:00,
2013-03-05 01:50:00,43.0,41.0,-100.00,South,180,5.0,7.0,91,0.00,,,0.00,0.000000,,2013-03-05 09:50:00,
2013-03-05 02:11:00,43.0,41.0,-100.00,South,180,5.0,7.0,91,0.00,,,0.00,0.000000,,2013-03-05 10:11:00,
2013-03-05 02:21:00,43.0,41.0,-100.00,South,180,5.0,7.0,91,0.00,,,0.00,0.000000,,2013-03-05 10:21:00,
2013-03-05 02:32:00,43.0,41.0,-100.00,South,180,5.0,7.0,91,0.00,,,0.00,0.000000,,2013-03-05 10:32:00,
2013-03-05 02:41:00,43.0,41.0,-100.00,South,180,5.0,7.0,91,0.00,,,0.00,0.000000,,2013-03-05 10:41:00,
2013-03-05 02:50:00,40.0,39.0,-100.00,SSW,201,4.0,7.0,97,0.00,,,0.00,0.000000,,2013-03-05 10:50:00,
2013-03-05 03:11:00,40.0,39.0,-100.00,SSW,201,4.0,7.0,97,0.00,,,0.00,0.000000,,2013-03-05 11:11:00,
2013-03-05 03:22:00,40.0,39.0,-100.00,SSW,201,4.0,7.0,97,0.00,,,0.00,0.000000,,2013-03-05 11:22:00,
2013-03-05 03:32:00,40.0,39.0,-100.00,SSW,201,4.0,7.0,97,0.00,,,0.00,0.000000,,2013-03-05 11:32:00,
2013-03-05 03:41:00,40.0,39.0,-100.00,SSW,201,4.0,7.0,97,0.00,,,0.00,0.000000,,2013-03-05 11:41:00,
2013-03-05 03:50:00,38.0,38.0,-100.00,SSW,210,3.0,6.0,99,0.00,,,0.00,0.000000,,2013-03-05 11:50:00,
2013-03-05 04:22:00,38.0,38.0,-100.00,SSW,210,3.0,6.0,99,0.00,,,0.00,0.000000,,2013-03-05 12:22:00,
2013-03-05 04:32:00,38.0,38.0,-100.00,SSW,210,3.0,6.0,99,0.00,,,0.00,0.000000,,2013-03-05 12:32:00,
2013-03-05 04:42:00,38.0,38.0,-100.00,SSW,210,3.0,6.0,99,0.00,,,0.00,0.000000,,2013-03-05 12:42:00,
2013-03-05 04:50:00,35.0,35.0,-100.00,SE,131,2.0,6.0,99,0.00,,,0.00,0.000000,,2013-03-05 12:50:00,
2013-03-05 05:21:00,35.0,35.0,-100.00,SE,131,2.0,6.0,99,0.00,,,0.00,0.000000,,2013-03-05 13:21:00,
2013-03-05 05:32:00,35.0,35.0,-100.00,SE,131,2.0,6.0,99,0.00,,,0.00,0.000000,,2013-03-05 13:32:00,
2013-03-05 05:42:00,35.0,35.0,-100.00,SE,131,2.0,6.0,99,0.00,,,0.00,0.000000,,2013-03-05 13:42:00,
2013-03-05 06:11:00,35.0,19.0,-100.00,SW,214,3.0,5.0,51,0.00,,,0.00,0.000000,,2013-03-05 14:11:00,
2013-03-05 06:21:00,35.0,19.0,-100.00,SW,214,3.0,5.0,51,0.00,,,0.00,0.000000,,2013-03-05 14:21:00,
2013-03-05 06:50:00,34.0,34.0,-100.00,East,82,3.0,6.0,98,0.00,,,0.00,4.000000,,2013-03-05 14:50:00,
2013-03-05 07:11:00,34.0,34.0,-100.00,East,82,3.0,6.0,98,0.00,,,0.00,4.000000,,2013-03-05 15:11:00,
2013-03-05 07:21:00,34.0,34.0,-100.00,East,82,3.0,6.0,98,0.00,,,0.00,4.000000,,2013-03-05 15:21:00,
2013-03-05 07:32:00,34.0,34.0,-100.00,East,82,3.0,6.0,98,0.00,,,0.00,4.000000,,2013-03-05 15:32:00,
2013-03-05 07:42:00,34.0,34.0,-100.00,East,82,3.0,6.0,98,0.00,,,0.00,4.000000,,2013-03-05 15:42:00,
2013-03-05 07:50:00,37.0,30.0,-100.00,SW,227,4.0,6.0,77,0.00,,,0.00,85.000000,,2013-03-05 15:50:00,
2013-03-05 08:21:00,37.0,30.0,-100.00,SW,227,4.0,6.0,77,0.00,,,0.00,85.000000,,2013-03-05 16:21:00,
2013-03-05 08:32:00,37.0,30.0,-100.00,SW,227,4.0,6.0,77,0.00,,,0.00,85.000000,,2013-03-05 16:32:00,
2013-03-05 08:41:00,37.0,30.0,-100.00,SW,227,4.0,6.0,77,0.00,,,0.00,85.000000,,2013-03-05 16:41:00,
2013-03-05 08:50:00,43.0,32.0,-100.00,SSE,168,6.0,7.0,66,0.00,,,0.00,308.000000,,2013-03-05 16:50:00,
2013-03-05 09:21:00,43.0,32.0,-100.00,SSE,168,6.0,7.0,66,0.00,,,0.00,308.000000,,2013-03-05 17:21:00,
2013-03-05 09:32:00,43.0,32.0,-100.00,SSE,168,6.0,7.0,66,0.00,,,0.00,308.000000,,2013-03-05 17:32:00,
2013-03-05 09:41:00,43.0,32.0,-100.00,SSE,168,6.0,7.0,66,0.00,,,0.00,308.000000,,2013-03-05 17:41:00,
2013-03-05 09:50:00,44.0,37.0,-100.00,South,189,7.0,12.0,76,0.00,,,0.00,494.000000,,2013-03-05 17:50:00,
2013-03-05 10:11:00,44.0,37.0,-100.00,South,189,7.0,12.0,76,0.00,,,0.00,494.000000,,2013-03-05 18:11:00,
2013-03-05 10:21:00,44.0,37.0,-100.00,South,189,7.0,12.0,76,0.00,,,0.00,494.000000,,2013-03-05 18:21:00,
2013-03-05 10:32:00,44.0,37.0,-100.00,South,189,7.0,12.0,76,0.00,,,0.00,494.000000,,2013-03-05 18:32:00,
2013-03-05 10:41:00,44.0,37.0,-100.00,South,189,7.0,12.0,76,0.00,,,0.00,494.000000,,2013-03-05 18:41:00,
2013-03-05 10:50:00,44.0,37.0,-100.00,SSW,192,8.0,16.0,77,0.00,,,0.00,655.000000,,2013-03-05 18:50:00,
2013-03-05 11:11:00,44.0,37.0,-100.00,SSW,192,8.0,16.0,77,0.00,,,0.00,655.000000,,2013-03-05 19:11:00,
2013-03-05 11:21:00,44.0,37.0,-100.00,SSW,192,8.0,16.0,77,0.00,,,0.00,655.000000,,2013-03-05 19:21:00,
2013-03-05 11:31:00,44.0,37.0,-100.00,SSW,192,8.0,16.0,77,0.00,,,0.00,655.000000,,2013-03-05 19:31:00,
2013-03-05 11:41:00,44.0,37.0,-100.00,SSW,192,8.0,16.0,77,0.00,,,0.00,655.000000,,2013-03-05 19:41:00,
2013-03-05 11:50:00,42.0,36.0,-100.00,SW,214,8.0,16.0,80,0.00,,,0.00,633.000000,,2013-03-05 19:50:00,
2013-03-05 12:21:00,42.0,36.0,-100.00,SW,214,8.0,16.0,80,0.00,,,0.00,633.000000,,2013-03-05 20:21:00,
2013-03-05 12:32:00,42.0,36.0,-100.00,SW,214,8.0,16.0,80,0.00,,,0.00,633.000000,,2013-03-05 20:32:00,
2013-03-05 12:41:00,42.0,36.0,-100.00,SW,214,8.0,16.0,80,0.00,,,0.00,633.000000,,2013-03-05 20:41:00,
2013-03-05 12:50:00,39.0,37.0,-100.00,SSW,196,10.0,17.0,92,0.00,,,0.00,305.000000,,2013-03-05 20:50:00,
2013-03-05 13:11:00,39.0,37.0,-100.00,SSW,196,10.0,17.0,92,0.00,,,0.00,305.000000,,2013-03-05 21:11:00,
2013-03-05 13:21:00,39.0,37.0,-100.00,SSW,196,10.0,17.0,92,0.00,,,0.00,305.000000,,2013-03-05 21:21:00,
2013-03-05 13:31:00,39.0,37.0,-100.00,SSW,196,10.0,17.0,92,0.00,,,0.00,305.000000,,2013-03-05 21:31:00,
2013-03-05 13:41:00,39.0,37.0,-100.00,SSW,196,10.0,17.0,92,0.00,,,0.00,305.000000,,2013-03-05 21:41:00,
2013-03-05 13:50:00,40.0,38.0,-100.00,SSW,200,8.0,14.0,92,0.00,,,0.00,252.000000,,2013-03-05 21:50:00,
2013-03-05 14:21:00,40.0,38.0,-100.00,SSW,200,8.0,14.0,92,0.00,,,0.00,252.000000,,2013-03-05 22:21:00,
2013-03-05 14:32:00,40.0,38.0,-100.00,SSW,200,8.0,14.0,92,0.00,,,0.00,252.000000,,2013-03-05 22:32:00,
2013-03-05 14:41:00,40.0,38.0,-100.00,SSW,200,8.0,14.0,92,0.00,,,0.00,252.000000,,2013-03-05 22:41:00,
2013-03-05 14:50:00,38.0,37.0,-100.00,SSW,200,9.0,15.0,95,0.00,,,0.00,171.000000,,2013-03-05 22:50:00,
2013-03-05 15:21:00,38.0,37.0,-100.00,SSW,200,9.0,15.0,95,0.00,,,0.00,171.000000,,2013-03-05 23:21:00,
2013-03-05 15:32:00,38.0,37.0,-100.00,SSW,200,9.0,15.0,95,0.00,,,0.00,171.000000,,2013-03-05 23:32:00,
2013-03-05 15:41:00,38.0,37.0,-100.00,SSW,200,9.0,15.0,95,0.00,,,0.00,171.000000,,2013-03-05 23:41:00,
2013-03-05 15:50:00,40.0,38.0,-100.00,SSW,196,9.0,17.0,94,0.00,,,0.00,189.000000,,2013-03-05 23:50:00,
2013-03-05 16:11:00,40.0,38.0,-100.00,SSW,196,9.0,17.0,94,0.00,,,0.00,189.000000,,2013-03-06 00:11:00,
2013-03-05 16:21:00,40.0,38.0,-100.00,SSW,196,9.0,17.0,94,0.00,,,0.00,189.000000,,2013-03-06 00:21:00,
2013-03-05 16:32:00,40.0,38.0,-100.00,SSW,196,9.0,17.0,94,0.00,,,0.00,189.000000,,2013-03-06 00:32:00,
2013-03-05 16:41:00,40.0,38.0,-100.00,SSW,196,9.0,17.0,94,0.00,,,0.00,189.000000,,2013-03-06 00:41:00,
2013-03-05 16:50:00,38.0,37.0,-100.00,SSW,204,10.0,18.0,98,0.00,,,0.00,99.000000,,2013-03-06 00:50:00,
2013-03-05 17:21:00,38.0,37.0,-100.00,SSW,204,10.0,18.0,98,0.00,,,0.00,99.000000,,2013-03-06 01:21:00,
2013-03-05 17:31:00,38.0,37.0,-100.00,SSW,204,10.0,18.0,98,0.00,,,0.00,99.000000,,2013-03-06 01:31:00,
2013-03-05 17:41:00,38.0,37.0,-100.00,SSW,204,10.0,18.0,98,0.00,,,0.00,99.000000,,2013-03-06 01:41:00,
2013-03-05 17:50:00,38.0,38.0,-100.00,SSW,198,9.0,20.0,99,0.00,,,0.00,17.000000,,2013-03-06 01:50:00,
2013-03-05 18:11:00,38.0,38.0,-100.00,SSW,198,9.0,20.0,99,0.00,,,0.00,17.000000,,2013-03-06 02:11:00,
2013-03-05 18:21:00,38.0,38.0,-100.00,SSW,198,9.0,20.0,99,0.00,,,0.00,17.000000,,2013-03-06 02:21:00,
2013-03-05 18:31:00,38.0,38.0,-100.00,SSW,198,9.0,20.0,99,0.00,,,0.00,17.000000,,2013-03-06 02:31:00,
2013-03-05 18:41:00,38.0,38.0,-100.00,SSW,198,9.0,20.0,99,0.00,,,0.00,17.000000,,2013-03-06 02:41:00,
2013-03-05 18:50:00,38.0,38.0,-100.00,SSW,205,14.0,23.0,100,0.00,,,0.00,1.000000,,2013-03-06 02:50:00,
2013-03-05 19:11:00,38.0,38.0,-100.00,SSW,205,14.0,23.0,100,0.00,,,0.00,1.000000,,2013-03-06 03:11:00,
2013-03-05 19:21:00,38.0,38.0,-100.00,SSW,205,14.0,23.0,100,0.00,,,0.00,1.000000,,2013-03-06 03:21:00,
2013-03-05 19:31:00,38.0,38.0,-100.00,SSW,205,14.0,23.0,100,0.00,,,0.00,1.000000,,2013-03-06 03:31:00,
2013-03-05 19:41:00,38.0,38.0,-100.00,SSW,205,14.0,23.0,100,0.00,,,0.00,1.000000,,2013-03-06 03:41:00,
2013-03-05 19:50:00,38.0,38.0,-100.00,SSW,199,15.0,30.0,100,0.00,,,0.00,0.000000,,2013-03-06 03:50:00,
2013-03-05 20:21:00,38.0,38.0,-100.00,SSW,199,15.0,30.0,100,0.00,,,0.00,0.000000,,2013-03-06 04:21:00,
2013-03-05 20:32:00,38.0,38.0,-100.00,SSW,199,15.0,30.0,100,0.00,,,0.00,0.000000,,2013-03-06 04:32:00,
2013-03-05 20:41:00,38.0,38.0,-100.00,SSW,199,15.0,30.0,100,0.00,,,0.00,0.000000,,2013-03-06 04:41:00,
2013-03-05 20:50:00,38.0,38.0,-100.00,SSW,201,16.0,34.0,100,0.00,,,0.00,0.000000,,2013-03-06 04:50:00,
2013-03-05 21:11:00,38.0,38.0,-100.00,SSW,201,16.0,34.0,100,0.00,,,0.00,0.000000,,2013-03-06 05:11:00,
2013-03-05 21:22:00,38.0,38.0,-100.00,SSW,201,16.0,34.0,100,0.00,,,0.00,0.000000,,2013-03-06 05:22:00,
2013-03-05 21:32:00,38.0,38.0,-100.00,SSW,201,16.0,34.0,100,0.00,,,0.00,0.000000,,2013-03-06 05:32:00,
2013-03-05 21:42:00,38.0,38.0,-100.00,SSW,201,16.0,34.0,100,0.00,,,0.00,0.000000,,2013-03-06 05:42:00,
2013-03-05 21:50:00,39.0,39.0,-100.00,South,176,15.0,32.0,100,0.20,,,0.20,0.000000,,2013-03-06 05:50:00,
2013-03-05 22:22:00,39.0,39.0,-100.00,South,176,15.0,32.0,100,0.20,,,0.20,0.000000,,2013-03-06 06:22:00,
2013-03-05 22:31:00,39.0,39.0,-100.00,South,176,15.0,32.0,100,0.20,,,0.20,0.000000,,2013-03-06 06:31:00,
2013-03-05 22:41:00,39.0,39.0,-100.00,South,176,15.0,32.0,100,0.20,,,0.20,0.000000,,2013-03-06 06:41:00,
2013-03-05 22:50:00,39.0,39.0,-100.00,South,187,14.0,27.0,100,0.22,,,0.42,0.000000,,2013-03-06 06:50:00,
2013-03-05 23:22:00,39.0,39.0,-100.00,South,187,14.0,27.0,100,0.22,,,0.42,0.000000,,2013-03-06 07:22:00,
2013-03-05 23:31:00,39.0,39.0,-100.00,South,187,14.0,27.0,100,0.22,,,0.42,0.000000,,2013-03-06 07:31:00,
2013-03-05 23:42:00,39.0,39.0,-100.00,South,187,14.0,27.0,100,0.22,,,0.42,0.000000,,2013-03-06 07:42:00,
2013-03-05 23:50:00,39.0,39.0,-100.00,South,180,18.0,37.0,100,0.22,,,0.64,0.000000,,2013-03-06 07:50:00,